Terminal Aerodrome Forecast
Issued by NWS

Home | Current Version | Previous Version | Text Only | Print | Product List | Glossary On
Versions: 1 2 3 4 5 6 7 8 9 10 11 12 13
000
FTUS46 KSEW 231736
TAFPAE
TAF
KPAE 231736Z 2318/2418 35014KT P6SM SKC
     FM240300 30020G35KT P6SM BKN050
     FM240600 30015G25KT P6SM SKC=

USA.gov is the U.S. government's official web portal to all federal, state and local government web resources and services.